Time;durP1;ratioP1;P1;durP2;ratioP2;P2;SDS_P1;SDS_P2;PMS_P1;PMS_P2;Temp;Humidity;BMP_temperature;BMP_pressure;BME280_temperature;BME280_humidity;BME280_pressure;Samples;Min_cycle;Max_cycle;Signal;HPM_P1;HPM_P2
2021/04/26 00:01:11;;;;;;;9.48;6.45;;;15.60;99.90;;;;;;4997186;28;20019;-75
2021/04/26 00:03:36;;;;;;;13.50;7.10;;;15.60;99.90;;;;;;5006420;28;20121;-75
2021/04/26 00:06:02;;;;;;;10.73;6.75;;;15.70;99.90;;;;;;4999850;28;20041;-75
2021/04/26 00:08:28;;;;;;;7.60;6.35;;;15.70;99.90;;;;;;5007655;28;20025;-77
2021/04/26 00:10:54;;;;;;;11.60;7.15;;;15.80;99.90;;;;;;5013221;28;20030;-76
2021/04/26 00:13:21;;;;;;;10.88;7.55;;;15.80;99.90;;;;;;4995989;28;20036;-76
2021/04/26 00:15:46;;;;;;;8.52;7.07;;;15.90;99.90;;;;;;4983850;28;20392;-76
2021/04/26 00:18:13;;;;;;;9.07;6.95;;;16.00;99.90;;;;;;4996291;28;20142;-76
2021/04/26 00:20:41;;;;;;;10.40;6.68;;;16.10;99.90;;;;;;5013141;28;20029;-76
2021/04/26 00:23:06;;;;;;;9.13;7.35;;;16.20;99.90;;;;;;5013457;28;20100;-75
2021/04/26 00:25:33;;;;;;;8.25;6.60;;;16.10;99.90;;;;;;5013213;28;20121;-76
2021/04/26 00:27:59;;;;;;;20.02;7.35;;;16.20;99.90;;;;;;4995603;28;20066;-75
2021/04/26 00:30:27;;;;;;;15.25;7.40;;;16.20;99.90;;;;;;5013084;28;20034;-75
2021/04/26 00:32:53;;;;;;;12.98;7.55;;;16.30;99.90;;;;;;5013192;28;20435;-78
2021/04/26 00:35:20;;;;;;;8.60;7.32;;;16.30;99.90;;;;;;5008324;28;20520;-77
2021/04/26 00:37:48;;;;;;;8.25;7.30;;;16.20;99.90;;;;;;4981567;28;20026;-75
2021/04/26 00:40:15;;;;;;;9.00;7.22;;;16.10;99.90;;;;;;5008455;28;20361;-77
2021/04/26 00:42:41;;;;;;;7.63;6.63;;;16.20;99.90;;;;;;4998647;28;20022;-75
2021/04/26 00:45:11;;;;;;;7.72;6.40;;;16.30;99.90;;;;;;5002370;28;20137;-78
2021/04/26 00:47:37;;;;;;;10.50;7.68;;;16.30;99.90;;;;;;5004525;28;20484;-75
2021/04/26 00:50:07;;;;;;;16.25;7.70;;;16.30;99.90;;;;;;5005576;28;20041;-76
2021/04/26 00:52:33;;;;;;;10.80;6.80;;;16.20;99.90;;;;;;4996026;28;20204;-75
2021/04/26 00:55:00;;;;;;;9.95;7.18;;;16.10;99.90;;;;;;4988719;28;20080;-76
2021/04/26 00:57:26;;;;;;;9.02;7.78;;;16.10;99.90;;;;;;5004043;28;20022;-76
2021/04/26 00:59:52;;;;;;;10.70;7.78;;;16.20;99.90;;;;;;5009803;28;20022;-76
2021/04/26 01:02:18;;;;;;;8.73;7.40;;;16.10;99.90;;;;;;5005449;28;20109;-76
2021/04/26 01:04:44;;;;;;;15.77;8.40;;;16.10;99.90;;;;;;4992808;28;20121;-75
2021/04/26 01:07:09;;;;;;;13.20;7.45;;;16.10;99.90;;;;;;4993020;28;20037;-78
2021/04/26 01:09:35;;;;;;;9.82;8.82;;;16.00;99.90;;;;;;5003859;28;20403;-76
2021/04/26 01:12:22;;;;;;;8.93;7.63;;;16.10;99.90;;;;;;5011562;28;20112;-75
2021/04/26 01:15:29;;;;;;;12.23;7.07;;;16.00;99.90;;;;;;4993853;28;20081;-76
2021/04/26 01:18:02;;;;;;;13.02;8.77;;;16.00;99.90;;;;;;4984459;28;20076;-75
2021/04/26 01:20:47;;;;;;;11.57;7.57;;;16.00;99.90;;;;;;5011643;28;20034;-75
2021/04/26 01:23:38;;;;;;;10.45;8.23;;;15.90;99.90;;;;;;5012886;28;20532;-76
2021/04/26 01:26:06;;;;;;;15.57;8.75;;;15.90;99.90;;;;;;5013004;28;20064;-75
2021/04/26 01:28:53;;;;;;;17.60;8.25;;;15.80;99.90;;;;;;5024985;28;20022;-76
2021/04/26 01:31:37;;;;;;;9.13;8.23;;;15.80;99.90;;;;;;5023114;28;20041;-76
2021/04/26 01:34:04;;;;;;;11.27;8.35;;;15.80;99.90;;;;;;4986718;28;20026;-76
2021/04/26 01:36:31;;;;;;;17.45;8.40;;;15.80;99.90;;;;;;4992537;28;20438;-77
2021/04/26 01:38:59;;;;;;;10.55;8.95;;;15.80;99.90;;;;;;4997905;28;20022;-75
2021/04/26 01:41:27;;;;;;;14.52;9.07;;;15.90;99.90;;;;;;5003502;28;20069;-76
2021/04/26 01:43:54;;;;;;;14.00;9.65;;;15.80;99.90;;;;;;4992481;28;20027;-75
2021/04/26 01:46:21;;;;;;;13.40;9.05;;;15.80;99.90;;;;;;5000010;28;20065;-75
2021/04/26 01:48:51;;;;;;;13.23;9.05;;;15.70;99.90;;;;;;4999166;28;20045;-76
2021/04/26 01:51:18;;;;;;;20.20;8.63;;;15.70;99.90;;;;;;5011767;28;20365;-75
2021/04/26 01:53:47;;;;;;;16.33;9.63;;;15.70;99.90;;;;;;5011665;28;20022;-76
2021/04/26 01:56:15;;;;;;;15.82;9.35;;;15.70;99.90;;;;;;5012017;28;20576;-76
2021/04/26 01:58:43;;;;;;;10.77;8.95;;;15.70;99.90;;;;;;5012010;28;20032;-74
2021/04/26 02:01:14;;;;;;;12.10;9.30;;;15.70;99.90;;;;;;4999985;28;20101;-77
2021/04/26 02:03:42;;;;;;;12.70;7.47;;;15.60;99.90;;;;;;4992369;28;20026;-75
2021/04/26 02:06:08;;;;;;;10.27;9.00;;;15.60;99.90;;;;;;4992795;28;20026;-75
2021/04/26 02:08:35;;;;;;;12.18;9.82;;;15.60;99.90;;;;;;4992258;28;20484;-76
2021/04/26 02:11:01;;;;;;;14.40;9.70;;;15.60;99.90;;;;;;4993150;28;20027;-76
2021/04/26 02:13:29;;;;;;;11.65;8.98;;;15.40;99.90;;;;;;4987397;28;20391;-75
2021/04/26 02:15:56;;;;;;;14.80;8.77;;;15.40;99.90;;;;;;4999949;28;20412;-74
2021/04/26 02:18:22;;;;;;;13.95;9.13;;;15.40;99.90;;;;;;4993869;28;20109;-76
2021/04/26 02:20:48;;;;;;;14.25;10.20;;;15.40;99.90;;;;;;5011142;28;20026;-76
2021/04/26 02:23:14;;;;;;;9.82;8.65;;;15.30;99.90;;;;;;5010999;28;20032;-76
2021/04/26 02:25:40;;;;;;;12.68;8.77;;;15.30;99.90;;;;;;5011373;28;20052;-78
2021/04/26 02:28:06;;;;;;;22.48;10.70;;;15.20;99.90;;;;;;5002663;28;20026;-79
2021/04/26 02:30:32;;;;;;;11.98;9.93;;;15.10;99.90;;;;;;4992656;28;20031;-77
2021/04/26 02:33:05;;;;;;;17.33;9.25;;;15.00;99.90;;;;;;4992349;28;20022;-78
2021/04/26 02:35:44;;;;;;;14.50;10.05;;;14.90;99.90;;;;;;4992468;28;20108;-77
2021/04/26 02:38:22;;;;;;;20.77;8.57;;;14.80;99.90;;;;;;4992713;28;20109;-78
2021/04/26 02:41:04;;;;;;;13.75;8.88;;;14.80;99.90;;;;;;5008580;28;20584;-79
2021/04/26 02:43:35;;;;;;;16.23;8.95;;;14.80;99.90;;;;;;5012449;28;20041;-79
2021/04/26 02:46:02;;;;;;;12.70;9.27;;;14.80;99.90;;;;;;5000831;28;20031;-77
2021/04/26 02:48:31;;;;;;;10.00;8.00;;;14.80;99.90;;;;;;5006159;28;20029;-79
2021/04/26 02:50:58;;;;;;;13.48;8.43;;;14.80;99.90;;;;;;5000168;28;20037;-78
2021/04/26 02:53:26;;;;;;;15.32;8.18;;;14.80;99.90;;;;;;4992050;28;20030;-78
2021/04/26 02:55:58;;;;;;;10.18;8.52;;;14.70;99.90;;;;;;4991828;28;20666;-78
2021/04/26 02:58:25;;;;;;;11.57;8.00;;;14.60;99.90;;;;;;4992245;28;20054;-78
2021/04/26 03:00:51;;;;;;;9.65;8.00;;;14.60;99.90;;;;;;5009773;28;20054;-78
2021/04/26 03:03:18;;;;;;;14.27;8.50;;;14.60;99.90;;;;;;5011898;28;20022;-80
2021/04/26 03:05:48;;;;;;;14.40;8.60;;;14.60;99.90;;;;;;5011992;28;20026;-78
2021/04/26 03:08:15;;;;;;;15.05;8.13;;;14.50;99.90;;;;;;4995001;28;20030;-77
2021/04/26 03:10:41;;;;;;;15.18;9.00;;;14.50;99.90;;;;;;4999936;28;20026;-77
2021/04/26 03:13:07;;;;;;;13.18;7.38;;;14.40;99.90;;;;;;5002418;28;20076;-77
2021/04/26 03:15:33;;;;;;;13.93;7.65;;;14.30;99.90;;;;;;4994747;28;20053;-78
2021/04/26 03:18:02;;;;;;;11.82;9.52;;;14.30;99.90;;;;;;5012236;28;20014;-77
2021/04/26 03:20:31;;;;;;;9.38;6.80;;;14.20;99.90;;;;;;5011862;28;20550;-78
2021/04/26 03:22:58;;;;;;;14.73;9.05;;;14.20;99.90;;;;;;5010956;28;20034;-78
2021/04/26 03:25:24;;;;;;;16.50;8.15;;;14.20;99.90;;;;;;5012874;28;20030;-78
2021/04/26 03:27:54;;;;;;;8.88;8.02;;;14.10;99.90;;;;;;5015422;28;20055;-77
2021/04/26 03:30:23;;;;;;;12.60;7.60;;;14.10;99.90;;;;;;5015106;28;20040;-78
2021/04/26 03:32:50;;;;;;;10.75;7.38;;;14.10;99.90;;;;;;5015144;28;20500;-78
2021/04/26 03:35:18;;;;;;;18.35;7.43;;;14.00;99.90;;;;;;5015526;28;20109;-77
2021/04/26 03:37:49;;;;;;;12.18;6.53;;;14.00;99.90;;;;;;5005068;28;20108;-78
2021/04/26 03:40:20;;;;;;;13.15;7.53;;;13.90;99.90;;;;;;4995968;28;20153;-78
2021/04/26 03:42:46;;;;;;;13.48;8.20;;;14.00;99.90;;;;;;4978322;28;20456;-78
2021/04/26 03:45:16;;;;;;;10.45;7.25;;;13.90;99.90;;;;;;4994959;28;20493;-77
2021/04/26 03:47:44;;;;;;;13.07;7.80;;;13.80;99.90;;;;;;4995319;28;20403;-77
2021/04/26 03:50:11;;;;;;;10.43;7.22;;;13.80;99.90;;;;;;4994692;28;20022;-77
2021/04/26 03:52:37;;;;;;;10.55;6.20;;;13.80;99.90;;;;;;4994902;28;20080;-78
2021/04/26 03:55:04;;;;;;;8.88;6.28;;;13.80;99.90;;;;;;4977556;28;20033;-78
2021/04/26 03:57:30;;;;;;;11.80;6.05;;;13.70;99.90;;;;;;4995091;28;20014;-78
2021/04/26 03:59:57;;;;;;;13.60;6.60;;;13.70;99.90;;;;;;4995139;28;20499;-78
2021/04/26 04:02:26;;;;;;;9.05;5.90;;;13.60;99.90;;;;;;5011890;28;20032;-77
2021/04/26 04:04:52;;;;;;;13.40;7.60;;;13.70;99.90;;;;;;5004753;28;20057;-77
2021/04/26 04:07:18;;;;;;;7.90;5.55;;;13.70;99.90;;;;;;4994797;28;20058;-77
2021/04/26 04:09:44;;;;;;;9.40;6.30;;;13.70;99.90;;;;;;4995895;28;20022;-77
2021/04/26 04:12:09;;;;;;;12.05;6.30;;;13.60;99.90;;;;;;5000139;28;20105;-79
2021/04/26 04:14:35;;;;;;;9.85;6.07;;;13.70;99.90;;;;;;5013993;28;20040;-77
2021/04/26 04:17:03;;;;;;;15.18;7.18;;;13.60;99.90;;;;;;5014711;28;20033;-78
2021/04/26 04:19:29;;;;;;;8.52;6.07;;;13.60;99.90;;;;;;4997156;28;20034;-78
2021/04/26 04:21:55;;;;;;;10.48;5.93;;;13.60;99.90;;;;;;4997309;28;20057;-77
2021/04/26 04:24:21;;;;;;;11.82;6.47;;;13.50;99.90;;;;;;5017228;28;20033;-77
2021/04/26 04:26:46;;;;;;;6.20;5.25;;;13.50;99.90;;;;;;5013881;28;20093;-77
2021/04/26 04:29:13;;;;;;;10.82;5.57;;;13.50;99.90;;;;;;4999138;28;20488;-78
2021/04/26 04:31:38;;;;;;;11.18;5.47;;;13.40;99.90;;;;;;4994802;28;20409;-77
2021/04/26 04:34:04;;;;;;;10.43;6.22;;;13.40;99.90;;;;;;4978827;28;20029;-78
2021/04/26 04:36:30;;;;;;;12.07;5.50;;;13.30;99.90;;;;;;4995431;28;20543;-78
2021/04/26 04:38:55;;;;;;;12.27;5.97;;;13.30;99.90;;;;;;4996132;28;20061;-76
2021/04/26 04:41:21;;;;;;;5.85;5.25;;;13.30;99.90;;;;;;4995713;28;20034;-77
2021/04/26 04:43:47;;;;;;;10.32;6.03;;;13.30;99.90;;;;;;4995390;28;20034;-77
2021/04/26 04:46:13;;;;;;;13.77;6.90;;;13.20;99.90;;;;;;4996088;28;20038;-76
2021/04/26 04:48:39;;;;;;;8.00;4.78;;;13.20;99.90;;;;;;5012598;28;20033;-77
2021/04/26 04:51:04;;;;;;;9.93;6.28;;;13.30;99.90;;;;;;4982854;28;20043;-77
2021/04/26 04:53:30;;;;;;;9.32;6.90;;;13.30;99.90;;;;;;4999808;28;20129;-76
2021/04/26 04:55:56;;;;;;;8.43;5.53;;;13.30;99.90;;;;;;4998291;28;20384;-77
2021/04/26 04:58:22;;;;;;;7.57;5.75;;;13.30;99.90;;;;;;5014692;28;20048;-77
2021/04/26 05:00:48;;;;;;;7.88;6.13;;;13.30;99.90;;;;;;5014759;28;20046;-76
2021/04/26 05:03:13;;;;;;;13.98;5.32;;;13.40;99.90;;;;;;5018185;28;20038;-77
2021/04/26 05:05:39;;;;;;;9.60;6.05;;;13.40;99.90;;;;;;5021633;28;20086;-77
2021/04/26 05:08:05;;;;;;;8.23;6.45;;;13.40;99.90;;;;;;5021499;28;20044;-79
2021/04/26 05:10:31;;;;;;;10.00;5.30;;;13.50;99.90;;;;;;5018577;28;20052;-77
2021/04/26 05:12:56;;;;;;;11.88;5.60;;;13.40;99.90;;;;;;4996669;28;20034;-76
2021/04/26 05:15:22;;;;;;;6.88;5.82;;;13.50;99.90;;;;;;5015599;28;20030;-76
2021/04/26 05:17:50;;;;;;;10.52;5.45;;;13.60;99.90;;;;;;4998701;28;20025;-78
2021/04/26 05:20:16;;;;;;;6.93;5.43;;;13.50;99.90;;;;;;5015171;28;20089;-77
2021/04/26 05:22:41;;;;;;;9.32;6.28;;;13.50;99.90;;;;;;5013404;28;20030;-78
2021/04/26 05:25:08;;;;;;;8.23;4.55;;;13.60;99.90;;;;;;5014743;28;20037;-77
2021/04/26 05:27:35;;;;;;;10.65;5.35;;;13.60;99.90;;;;;;5017605;28;20104;-77
2021/04/26 05:30:02;;;;;;;8.02;4.13;;;13.70;99.90;;;;;;5017438;28;20601;-77
2021/04/26 05:32:28;;;;;;;7.47;5.15;;;13.60;99.90;;;;;;5019564;28;20030;-77
2021/04/26 05:34:54;;;;;;;8.15;5.43;;;13.60;99.90;;;;;;5019327;28;20049;-77
2021/04/26 05:37:19;;;;;;;12.02;5.85;;;13.60;99.90;;;;;;5017881;28;20033;-77
2021/04/26 05:39:45;;;;;;;8.20;5.28;;;13.60;99.90;;;;;;5016184;28;20030;-77
2021/04/26 05:42:11;;;;;;;17.67;5.53;;;13.60;99.90;;;;;;4998780;28;20026;-76
2021/04/26 05:44:37;;;;;;;8.65;4.90;;;13.70;99.90;;;;;;4999458;28;20022;-77
2021/04/26 05:47:03;;;;;;;6.82;4.80;;;13.70;99.90;;;;;;4999777;28;20027;-77
2021/04/26 05:49:28;;;;;;;11.55;5.15;;;13.60;99.90;;;;;;5000004;28;20107;-77
2021/04/26 05:51:54;;;;;;;8.85;5.32;;;13.60;99.90;;;;;;4999707;28;20030;-76
2021/04/26 05:54:20;;;;;;;8.55;4.70;;;13.60;99.90;;;;;;4997945;28;20125;-76
2021/04/26 05:56:47;;;;;;;10.82;5.30;;;13.80;99.90;;;;;;4998751;28;20081;-76
2021/04/26 05:59:12;;;;;;;11.57;5.25;;;13.80;99.90;;;;;;4980445;28;20030;-76
2021/04/26 06:01:38;;;;;;;12.18;5.72;;;13.80;99.90;;;;;;4999416;28;20128;-77
2021/04/26 06:04:04;;;;;;;8.07;5.53;;;13.80;99.90;;;;;;4997940;28;20030;-76
2021/04/26 06:06:30;;;;;;;12.73;5.80;;;13.90;99.90;;;;;;5005712;28;20060;-77
2021/04/26 06:08:56;;;;;;;7.32;4.28;;;13.90;99.90;;;;;;5018704;28;20030;-76
2021/04/26 06:11:22;;;;;;;13.55;5.70;;;13.90;99.90;;;;;;5005991;28;20021;-76
2021/04/26 06:13:48;;;;;;;7.43;5.45;;;13.90;99.90;;;;;;5011946;28;20026;-76
2021/04/26 06:16:14;;;;;;;8.20;4.63;;;13.90;99.90;;;;;;4993459;28;20037;-77
2021/04/26 06:18:40;;;;;;;8.68;5.28;;;14.00;99.90;;;;;;5010851;28;20101;-76
2021/04/26 06:21:06;;;;;;;7.43;5.43;;;14.10;99.90;;;;;;4992259;28;20101;-77
2021/04/26 06:23:31;;;;;;;10.07;4.40;;;14.10;99.90;;;;;;4994844;28;20087;-76
2021/04/26 06:25:57;;;;;;;11.35;5.40;;;14.20;99.90;;;;;;4995797;28;20558;-77
2021/04/26 06:28:23;;;;;;;6.72;4.40;;;14.30;99.90;;;;;;5013466;28;20091;-76
2021/04/26 06:30:48;;;;;;;6.65;5.22;;;14.40;99.90;;;;;;4991591;28;20475;-77
2021/04/26 06:33:17;;;;;;;8.93;5.88;;;14.30;99.90;;;;;;4998255;28;20115;-77
2021/04/26 06:35:50;;;;;;;15.32;5.50;;;14.40;99.90;;;;;;4996900;28;20036;-75
2021/04/26 06:38:17;;;;;;;6.93;5.47;;;14.30;99.90;;;;;;4992044;28;20085;-77
2021/04/26 06:40:43;;;;;;;9.82;5.45;;;14.40;99.90;;;;;;4974416;28;20033;-76
2021/04/26 06:43:10;;;;;;;9.65;5.22;;;14.30;99.90;;;;;;5006060;28;20082;-76
2021/04/26 06:45:38;;;;;;;9.82;5.30;;;14.30;99.90;;;;;;5011118;28;20041;-76
2021/04/26 06:48:04;;;;;;;13.93;5.35;;;14.30;99.90;;;;;;4993576;28;20044;-76
2021/04/26 06:50:31;;;;;;;7.43;4.97;;;14.30;99.90;;;;;;5010018;28;20021;-78
2021/04/26 06:52:57;;;;;;;9.95;5.40;;;14.30;99.90;;;;;;5010596;28;20461;-76
2021/04/26 06:55:24;;;;;;;8.50;4.82;;;14.30;99.90;;;;;;5011361;28;20037;-77
2021/04/26 06:57:51;;;;;;;8.00;4.97;;;14.40;99.90;;;;;;4993307;28;20121;-76
2021/04/26 07:00:18;;;;;;;6.45;4.78;;;14.40;99.90;;;;;;5014644;28;20041;-76
2021/04/26 07:02:44;;;;;;;7.63;5.32;;;14.40;99.90;;;;;;4997783;28;20120;-76
2021/04/26 07:05:10;;;;;;;6.65;4.30;;;14.50;99.90;;;;;;5014639;28;20148;-76
2021/04/26 07:07:37;;;;;;;5.30;4.22;;;14.50;99.90;;;;;;4997086;28;20080;-76
2021/04/26 07:10:04;;;;;;;7.45;4.53;;;14.60;99.90;;;;;;5003193;28;20121;-77
2021/04/26 07:12:30;;;;;;;13.50;4.57;;;14.60;99.90;;;;;;5010015;28;20022;-76
2021/04/26 07:14:56;;;;;;;5.70;4.05;;;14.60;99.90;;;;;;5014610;28;20022;-77
2021/04/26 07:17:23;;;;;;;7.50;4.40;;;14.70;99.90;;;;;;4993998;28;20049;-77
2021/04/26 07:19:49;;;;;;;9.10;5.00;;;14.80;99.90;;;;;;4995678;28;20030;-77
2021/04/26 07:22:15;;;;;;;6.05;3.50;;;14.70;99.90;;;;;;4995239;28;20033;-76
2021/04/26 07:24:41;;;;;;;11.70;3.67;;;14.70;99.90;;;;;;5004728;28;20489;-76
2021/04/26 07:27:07;;;;;;;8.40;6.10;;;14.70;99.90;;;;;;4998859;28;20073;-77
2021/04/26 07:29:32;;;;;;;9.85;5.03;;;14.80;99.90;;;;;;5011397;28;20022;-76
2021/04/26 07:31:58;;;;;;;8.88;3.95;;;14.90;99.90;;;;;;5014726;28;20033;-77
2021/04/26 07:34:24;;;;;;;9.50;4.70;;;14.80;99.90;;;;;;4998548;28;20097;-77
2021/04/26 07:36:50;;;;;;;9.95;4.38;;;14.90;99.90;;;;;;5001705;28;20030;-76
2021/04/26 07:39:15;;;;;;;10.13;3.85;;;14.90;99.90;;;;;;5011374;28;20555;-76
2021/04/26 07:41:41;;;;;;;5.30;4.15;;;15.00;99.90;;;;;;5013077;28;20022;-73
2021/04/26 07:44:08;;;;;;;5.38;4.07;;;15.00;99.90;;;;;;5010825;28;20508;-72
2021/04/26 07:46:34;;;;;;;6.55;3.90;;;15.10;99.90;;;;;;5013669;28;20503;-71
2021/04/26 07:49:00;;;;;;;11.07;4.45;;;15.40;99.90;;;;;;4998671;28;20109;-74
2021/04/26 07:51:25;;;;;;;7.07;4.43;;;15.50;99.90;;;;;;5011139;28;20026;-71
2021/04/26 07:53:51;;;;;;;5.30;3.28;;;15.60;99.90;;;;;;4996847;28;20157;-72
2021/04/26 07:56:17;;;;;;;5.25;4.32;;;15.60;99.90;;;;;;5006831;28;20030;-70
2021/04/26 07:58:43;;;;;;;6.50;4.43;;;15.40;99.90;;;;;;5013089;28;20531;-70
2021/04/26 08:01:09;;;;;;;7.20;4.03;;;15.30;99.90;;;;;;5012729;28;20108;-70
2021/04/26 08:03:34;;;;;;;10.88;4.35;;;15.40;99.90;;;;;;5013634;28;20058;-71
2021/04/26 08:06:00;;;;;;;4.72;3.80;;;15.60;99.90;;;;;;5013869;28;20037;-69
2021/04/26 08:08:26;;;;;;;10.60;4.88;;;15.80;99.90;;;;;;5009006;28;20025;-70
2021/04/26 08:10:51;;;;;;;8.55;4.20;;;15.70;99.90;;;;;;5006945;28;20026;-69
2021/04/26 08:13:17;;;;;;;7.97;4.82;;;15.60;99.90;;;;;;5010685;28;20238;-73
2021/04/26 08:15:43;;;;;;;9.77;4.65;;;15.40;99.90;;;;;;4996647;28;20468;-73
2021/04/26 08:18:09;;;;;;;3.47;3.00;;;15.50;99.90;;;;;;5001869;28;20021;-72
2021/04/26 08:20:36;;;;;;;7.88;3.97;;;15.70;99.90;;;;;;4998372;28;20040;-72
2021/04/26 08:23:05;;;;;;;7.05;4.15;;;15.70;99.90;;;;;;5001628;28;20117;-65
2021/04/26 08:25:31;;;;;;;6.70;4.03;;;15.80;99.90;;;;;;5012988;28;20026;-66
2021/04/26 08:27:57;;;;;;;5.97;4.28;;;15.90;99.90;;;;;;5011699;28;22123;-67
2021/04/26 08:30:23;;;;;;;3.75;3.40;;;15.90;99.90;;;;;;5005806;28;20044;-65
2021/04/26 08:32:49;;;;;;;6.90;5.18;;;15.90;99.90;;;;;;5012603;28;20033;-66
2021/04/26 08:35:15;;;;;;;11.88;4.60;;;15.70;99.90;;;;;;5001965;28;20033;-66
2021/04/26 08:37:41;;;;;;;14.77;3.90;;;15.80;99.90;;;;;;5009564;28;20088;-65
2021/04/26 08:40:08;;;;;;;5.85;4.35;;;15.90;99.90;;;;;;4983027;28;20112;-66
2021/04/26 08:42:34;;;;;;;9.13;4.43;;;16.00;99.90;;;;;;5007680;28;20034;-65
2021/04/26 08:45:01;;;;;;;6.60;5.50;;;15.90;99.90;;;;;;4992649;28;20034;-66
2021/04/26 08:47:27;;;;;;;6.53;3.90;;;15.90;99.90;;;;;;5011797;28;20365;-65
2021/04/26 08:49:58;;;;;;;12.13;4.60;;;16.00;99.90;;;;;;5005832;28;20562;-65
2021/04/26 08:52:27;;;;;;;7.55;3.55;;;16.00;99.90;;;;;;4994878;28;20046;-66
2021/04/26 08:54:54;;;;;;;8.65;4.65;;;16.10;99.90;;;;;;5006785;28;20038;-65
2021/04/26 08:57:20;;;;;;;6.85;4.32;;;16.30;99.90;;;;;;5008330;28;20032;-65
2021/04/26 08:59:47;;;;;;;11.50;4.32;;;16.20;99.50;;;;;;5002858;28;20045;-66
2021/04/26 09:02:13;;;;;;;5.88;4.13;;;15.90;99.60;;;;;;4992542;28;20057;-65
2021/04/26 09:04:48;;;;;;;5.53;4.35;;;15.90;99.50;;;;;;5005521;28;20033;-65
2021/04/26 09:07:14;;;;;;;6.88;4.55;;;15.80;99.90;;;;;;5005749;28;20520;-66
2021/04/26 09:09:41;;;;;;;7.50;5.18;;;15.80;99.90;;;;;;5006995;28;20068;-66
2021/04/26 09:12:10;;;;;;;7.40;4.38;;;15.70;99.90;;;;;;5004574;28;20534;-66
2021/04/26 09:14:37;;;;;;;4.63;4.18;;;15.70;99.90;;;;;;5011956;28;20093;-66
2021/04/26 09:17:27;;;;;;;9.23;4.30;;;15.70;99.90;;;;;;5010402;28;20026;-66
2021/04/26 09:19:54;;;;;;;9.15;4.22;;;15.60;99.90;;;;;;5005333;28;20061;-66
2021/04/26 09:22:44;;;;;;;6.85;4.70;;;15.40;99.90;;;;;;5004522;28;20050;-71
2021/04/26 09:25:48;;;;;;;7.40;3.90;;;15.30;99.90;;;;;;4978785;28;20081;-70
2021/04/26 09:28:20;;;;;;;9.30;4.53;;;15.10;99.90;;;;;;4988023;28;20061;-70
2021/04/26 09:30:56;;;;;;;10.32;5.35;;;15.00;99.90;;;;;;4988023;28;20034;-72
2021/04/26 09:33:37;;;;;;;21.08;7.28;;;15.10;99.90;;;;;;5006514;28;20112;-71
2021/04/26 09:36:16;;;;;;;9.07;5.53;;;15.10;99.90;;;;;;5010567;28;20050;-70
2021/04/26 09:38:53;;;;;;;5.55;5.00;;;15.10;99.90;;;;;;5009396;28;20025;-72
2021/04/26 09:41:29;;;;;;;10.25;4.53;;;15.20;99.90;;;;;;5009654;28;20495;-72
2021/04/26 09:44:17;;;;;;;10.35;4.13;;;15.20;99.90;;;;;;5011019;28;20030;-71
2021/04/26 09:46:47;;;;;;;9.13;4.03;;;15.20;99.90;;;;;;5008518;28;20429;-73
2021/04/26 09:49:15;;;;;;;10.63;4.90;;;15.20;99.90;;;;;;5011685;28;20034;-72
2021/04/26 09:51:43;;;;;;;9.95;4.55;;;15.20;99.90;;;;;;5009173;28;20026;-71
2021/04/26 09:54:10;;;;;;;6.90;3.70;;;15.30;99.90;;;;;;5011320;28;20076;-72
2021/04/26 09:56:40;;;;;;;9.20;5.18;;;15.20;99.90;;;;;;5009868;28;20024;-72
2021/04/26 09:59:07;;;;;;;7.00;4.05;;;15.40;99.90;;;;;;5004964;28;20023;-72
2021/04/26 10:01:33;;;;;;;11.32;4.90;;;15.50;99.90;;;;;;5003386;28;20032;-71
2021/04/26 10:04:01;;;;;;;8.13;4.13;;;15.70;99.90;;;;;;5011244;28;20108;-71
2021/04/26 10:06:26;;;;;;;6.70;3.88;;;15.90;99.90;;;;;;5009346;28;20030;-71
2021/04/26 10:08:55;;;;;;;9.00;4.13;;;16.10;99.90;;;;;;4994305;28;20076;-71
2021/04/26 10:11:23;;;;;;;5.65;4.15;;;16.20;99.90;;;;;;5009994;28;20484;-70
2021/04/26 10:13:50;;;;;;;12.50;3.75;;;16.40;99.90;;;;;;5010550;28;20058;-70
2021/04/26 10:16:32;;;;;;;10.20;3.63;;;16.30;99.90;;;;;;5009879;28;20032;-72
2021/04/26 10:19:00;;;;;;;10.20;5.57;;;16.30;99.90;;;;;;5008456;28;20037;-70
2021/04/26 10:21:25;;;;;;;8.10;4.72;;;16.20;99.90;;;;;;5003350;28;20747;-70
2021/04/26 10:23:54;;;;;;;6.13;5.07;;;16.30;99.90;;;;;;5004548;28;20042;-70
2021/04/26 10:26:52;;;;;;;9.48;4.38;;;16.50;99.90;;;;;;5007049;28;20689;-71
2021/04/26 10:29:34;;;;;;;6.95;4.43;;;16.70;99.90;;;;;;5009392;28;20405;-72
2021/04/26 10:32:02;;;;;;;9.23;4.40;;;16.60;99.90;;;;;;5009255;28;20534;-71
2021/04/26 10:34:43;;;;;;;6.57;4.35;;;16.40;99.90;;;;;;5010347;28;20022;-72
2021/04/26 10:37:15;;;;;;;6.57;5.72;;;16.40;99.90;;;;;;5007047;28;20050;-70
2021/04/26 10:40:08;;;;;;;6.60;4.40;;;16.40;99.90;;;;;;5009699;28;20022;-70
2021/04/26 10:42:38;;;;;;;6.88;4.55;;;16.40;99.90;;;;;;4997979;28;20034;-71
2021/04/26 10:45:25;;;;;;;6.35;4.20;;;16.50;99.90;;;;;;5011225;28;20029;-72
2021/04/26 10:48:05;;;;;;;5.25;4.78;;;16.60;99.90;;;;;;5009623;28;20026;-72
2021/04/26 10:50:38;;;;;;;5.93;4.72;;;16.60;99.90;;;;;;4992657;28;20403;-72
2021/04/26 10:53:05;;;;;;;10.43;5.10;;;16.50;99.90;;;;;;5003557;28;20117;-72
2021/04/26 10:55:34;;;;;;;7.53;5.43;;;16.40;99.90;;;;;;5010691;28;20101;-70
2021/04/26 10:58:19;;;;;;;9.85;4.30;;;16.30;99.90;;;;;;5008314;28;20076;-72
2021/04/26 11:00:45;;;;;;;7.35;5.15;;;16.30;99.90;;;;;;5010567;28;20210;-70
2021/04/26 11:03:11;;;;;;;6.93;4.28;;;16.60;99.90;;;;;;5002951;28;20052;-72
2021/04/26 11:05:42;;;;;;;10.07;5.43;;;16.90;99.90;;;;;;4990880;28;20037;-70
2021/04/26 11:11:01;;;;;;;5.18;4.18;;;17.30;99.90;;;;;;5007821;28;20541;-69
2021/04/26 11:13:33;;;;;;;9.32;5.40;;;17.40;99.90;;;;;;5005575;28;20467;-71
2021/04/26 11:16:04;;;;;;;5.18;4.60;;;17.40;99.90;;;;;;5010237;28;20381;-72
2021/04/26 11:18:32;;;;;;;8.55;4.88;;;17.60;99.90;;;;;;4992660;28;20022;-72
2021/04/26 11:20:58;;;;;;;8.20;4.32;;;17.90;99.90;;;;;;5003927;28;20496;-71
2021/04/26 11:23:46;;;;;;;7.78;4.15;;;17.90;99.90;;;;;;4987795;28;20038;-73
2021/04/26 11:26:15;;;;;;;14.48;5.78;;;17.50;99.90;;;;;;4994591;28;20022;-72
2021/04/26 11:29:08;;;;;;;9.00;4.15;;;17.30;99.90;;;;;;5010870;28;20030;-73
2021/04/26 11:31:43;;;;;;;6.97;4.65;;;17.30;99.90;;;;;;4992884;28;20113;-73
2021/04/26 11:34:18;;;;;;;6.88;4.82;;;17.40;99.90;;;;;;5010104;28;20089;-74
2021/04/26 11:37:10;;;;;;;8.05;5.78;;;17.50;99.90;;;;;;5010332;28;20021;-76
2021/04/26 11:39:40;;;;;;;7.80;5.22;;;17.60;99.90;;;;;;5005570;28;20034;-75
2021/04/26 11:42:06;;;;;;;7.78;5.63;;;17.50;99.90;;;;;;5005439;28;21591;-75
2021/04/26 11:44:35;;;;;;;10.02;5.18;;;17.70;99.90;;;;;;5005595;28;20080;-73
2021/04/26 11:47:03;;;;;;;11.27;6.55;;;17.70;99.90;;;;;;5013152;28;20029;-74
2021/04/26 11:49:29;;;;;;;8.43;6.18;;;17.50;99.90;;;;;;5013730;28;20041;-74
2021/04/26 11:51:55;;;;;;;9.40;6.72;;;17.40;99.90;;;;;;5001126;28;20551;-75
2021/04/26 11:54:24;;;;;;;10.82;6.95;;;17.60;99.90;;;;;;5013643;28;20037;-73
2021/04/26 11:57:03;;;;;;;12.63;5.63;;;17.40;99.90;;;;;;5013542;28;20021;-74
2021/04/26 11:59:30;;;;;;;9.85;7.18;;;17.50;99.90;;;;;;5011760;28;20041;-73
2021/04/26 12:01:55;;;;;;;12.95;6.30;;;17.50;99.90;;;;;;5016475;28;20026;-74
2021/04/26 12:04:39;;;;;;;9.02;6.38;;;17.50;99.90;;;;;;5020452;28;20022;-71
2021/04/26 12:07:12;;;;;;;10.00;6.75;;;17.50;99.90;;;;;;5018699;28;20412;-72
2021/04/26 12:09:38;;;;;;;9.50;5.70;;;17.30;99.90;;;;;;5011102;28;20053;-72
2021/04/26 12:12:07;;;;;;;10.32;6.35;;;17.50;99.90;;;;;;5009786;28;20104;-74
2021/04/26 12:14:36;;;;;;;8.75;5.20;;;17.50;99.90;;;;;;5012205;28;20029;-72
2021/04/26 12:17:17;;;;;;;8.95;4.88;;;17.70;99.90;;;;;;5013341;28;20025;-73
2021/04/26 12:19:43;;;;;;;10.57;5.35;;;17.70;99.90;;;;;;5012039;28;20079;-74
2021/04/26 12:22:10;;;;;;;8.10;4.75;;;17.70;99.90;;;;;;5010209;28;20505;-73
2021/04/26 12:24:35;;;;;;;11.82;5.22;;;17.90;99.90;;;;;;5011653;28;20105;-73
2021/04/26 12:27:09;;;;;;;12.50;6.22;;;18.10;99.90;;;;;;5006527;28;20025;-73
2021/04/26 12:29:35;;;;;;;6.93;5.45;;;18.10;99.90;;;;;;5008108;28;20014;-72
2021/04/26 12:32:17;;;;;;;9.27;4.68;;;18.30;99.90;;;;;;5009205;28;20535;-73
2021/04/26 12:34:54;;;;;;;5.07;4.40;;;18.40;99.90;;;;;;5013006;28;20021;-73
2021/04/26 12:37:22;;;;;;;5.10;4.18;;;18.70;99.90;;;;;;4998206;28;20388;-72
2021/04/26 12:39:49;;;;;;;7.60;5.28;;;18.90;99.90;;;;;;5010424;28;20490;-71
2021/04/26 12:42:20;;;;;;;11.25;5.70;;;18.90;99.90;;;;;;5011972;28;20030;-74
2021/04/26 12:44:47;;;;;;;11.50;4.78;;;18.60;99.90;;;;;;5009198;28;20357;-73
2021/04/26 12:47:25;;;;;;;5.95;4.35;;;18.30;99.90;;;;;;5010004;28;20535;-72
2021/04/26 12:50:23;;;;;;;10.73;4.75;;;18.00;99.90;;;;;;5004293;28;20045;-74
2021/04/26 12:53:05;;;;;;;5.70;4.97;;;18.10;99.90;;;;;;4987313;28;20026;-73
2021/04/26 12:55:31;;;;;;;;;;;18.20;99.90;;;;;;5007383;28;20029;-72